Geneva Cointrin International Airport LSGG

Flugplatz Daten

Name: Geneva Cointrin International Airport

Ident: LSGG

Lat: 46,23809814

Long: 6,108950138

Platzhöhe: 1411 ft

IataCode: GVA

City: Geneva

Homepage: http://www.gva.ch/

Metar

2022/08/10 19:50
LSGG 101950Z 03008KT CAVOK 26/09 Q1018 NOSIG

Taf

2022/08/10 18:33
TAF TAF LSGG 101725Z 1018/1124 04006KT CAVOK TX31/1115Z TN15/1104Z
Gewünschte Webcam nicht vorhanden? Dann fügen Sie eine hinzu. Sie wird dann so schnell wie möglich freigeschaltet
Url: Title: